createdAt,value
2018-02-10T00:00:46.269Z,-0.37
2018-02-10T00:01:46.199Z,-0.34
2018-02-10T00:02:46.224Z,-0.4
2018-02-10T00:04:45.980Z,-0.34
2018-02-10T00:05:46.233Z,-0.36
2018-02-10T00:06:46.250Z,-0.36
2018-02-10T00:07:46.279Z,-0.29
2018-02-10T00:08:46.277Z,-0.39
2018-02-10T00:09:46.287Z,-0.36
2018-02-10T00:12:00.999Z,-0.36
2018-02-10T00:14:46.346Z,-0.21
2018-02-10T00:15:46.359Z,-0.14
2018-02-10T00:16:46.374Z,-0.19
2018-02-10T00:17:46.124Z,-0.19
2018-02-10T00:18:46.135Z,-0.16
2018-02-10T00:19:46.397Z,-0.22
2018-02-10T00:20:46.401Z,-0.15
2018-02-10T00:21:46.446Z,-0.18
2018-02-10T00:23:46.205Z,-0.18
2018-02-10T00:24:46.233Z,-0.15
2018-02-10T00:25:46.471Z,-0.16
2018-02-10T00:26:46.478Z,-0.04
2018-02-10T00:27:46.263Z,-0.07
2018-02-10T00:28:46.515Z,-0.15
2018-02-10T00:30:00.948Z,-0.04
2018-02-10T00:30:46.277Z,-0.04
2018-02-10T00:31:46.593Z,-0.15
2018-02-10T00:32:46.545Z,-0.04
2018-02-10T00:33:46.594Z,-0.01
2018-02-10T00:34:46.573Z,0.08
2018-02-10T00:35:46.603Z,0.08
2018-02-10T00:36:46.597Z,0.13
2018-02-10T00:37:46.629Z,-0.01
2018-02-10T00:38:46.638Z,0.07
2018-02-10T00:39:46.394Z,-0.03
2018-02-10T00:40:46.646Z,-0.01
2018-02-10T00:41:46.667Z,0.07
2018-02-10T00:42:46.677Z,-0.04
2018-02-10T00:43:46.696Z,0.04
2018-02-10T00:44:46.713Z,-0.03
2018-02-10T00:46:01.397Z,-0.01
2018-02-10T00:46:46.711Z,0.02
2018-02-10T00:48:46.492Z,-0.11
2018-02-10T00:49:46.778Z,-0.11
2018-02-10T00:50:46.540Z,-0.07
2018-02-10T00:51:46.794Z,0.08
2018-02-10T00:52:46.807Z,0.1
2018-02-10T00:53:46.836Z,0.04
2018-02-10T00:54:46.852Z,0.08
2018-02-10T00:55:46.847Z,0.03
2018-02-10T00:56:46.844Z,0.02
2018-02-10T00:57:46.848Z,0.03
2018-02-10T00:58:46.894Z,0.1
2018-02-10T00:59:46.641Z,0.11
2018-02-10T01:01:01.588Z,0.13
2018-02-10T01:01:46.911Z,0.08
2018-02-10T01:02:46.919Z,0.14
2018-02-10T01:03:46.416Z,0.13
2018-02-10T01:04:46.697Z,0.15
2018-02-10T01:05:46.709Z,0.1
2018-02-10T01:06:46.966Z,-0.04
2018-02-10T01:07:46.973Z,0.15
2018-02-10T01:08:46.754Z,0.07
2018-02-10T01:09:47.004Z,0.03
2018-02-10T01:10:47.005Z,-0.03
2018-02-10T01:11:47.039Z,0.1
2018-02-10T01:12:46.788Z,0.04
2018-02-10T01:13:47.053Z,0.02
2018-02-10T01:14:47.070Z,-0.01
2018-02-10T01:15:47.079Z,0
2018-02-10T01:16:47.083Z,0.02
2018-02-10T01:17:47.108Z,0.02
2018-02-10T01:18:46.864Z,-0.04
2018-02-10T01:19:47.123Z,-0.05
2018-02-10T01:20:47.120Z,-0.04
2018-02-10T01:21:47.166Z,-0.03
2018-02-10T01:22:47.155Z,0
2018-02-10T01:23:46.918Z,-0.08
2018-02-10T01:24:47.206Z,-0.03
2018-02-10T01:25:47.208Z,-0.07
2018-02-10T01:26:46.708Z,-0.04
2018-02-10T01:27:47.228Z,-0.01
2018-02-10T01:28:47.246Z,0.08
2018-02-10T01:29:46.991Z,-0.01
2018-02-10T01:30:46.756Z,0.08
2018-02-10T01:31:47.263Z,0.14
2018-02-10T01:33:01.958Z,0.17
2018-02-10T01:33:47.347Z,0.14
2018-02-10T01:34:47.314Z,0.15
2018-02-10T01:35:47.330Z,0.07
2018-02-10T01:37:02.006Z,0.03
2018-02-10T01:37:47.086Z,0.17
2018-02-10T01:39:47.384Z,0.15
2018-02-10T01:40:47.387Z,0.1
2018-02-10T01:41:47.384Z,0.14
2018-02-10T01:42:47.401Z,0.1
2018-02-10T01:43:47.168Z,0.1
2018-02-10T01:44:47.169Z,0.08
2018-02-10T01:45:47.173Z,0.11
2018-02-10T01:46:47.459Z,0.11
2018-02-10T01:47:47.316Z,0.18
2018-02-10T01:49:02.157Z,0.11
2018-02-10T01:49:47.506Z,0.02
2018-02-10T01:50:47.510Z,0.02
2018-02-10T01:52:47.284Z,0
2018-02-10T01:53:47.541Z,0.07
2018-02-10T01:54:47.664Z,0.14
2018-02-10T01:55:47.300Z,0.14
2018-02-10T01:56:47.324Z,0.1
2018-02-10T01:58:01.992Z,0.1
2018-02-10T01:58:47.590Z,0.08
2018-02-10T01:59:47.091Z,-0.01
2018-02-10T02:01:02.296Z,0.07
2018-02-10T02:02:02.308Z,0.11
2018-02-10T02:02:47.632Z,0.1
2018-02-10T02:03:47.406Z,0
2018-02-10T02:05:02.325Z,-0.04
2018-02-10T02:05:47.673Z,0.02
2018-02-10T02:06:47.675Z,0.1
2018-02-10T02:07:47.708Z,0.03
2018-02-10T02:08:47.453Z,0.03
2018-02-10T02:09:47.733Z,0.04
2018-02-10T02:13:02.426Z,0.11
2018-02-10T02:13:47.773Z,0.08
2018-02-10T02:15:47.279Z,-0.01
2018-02-10T02:16:47.559Z,0.08
2018-02-10T02:17:47.574Z,0.13
2018-02-10T02:18:47.832Z,0
2018-02-10T02:19:47.833Z,0.02
2018-02-10T02:21:02.526Z,0.07
2018-02-10T02:22:47.883Z,0.02
2018-02-10T02:25:47.924Z,0.21
2018-02-10T02:26:47.928Z,0.14
2018-02-10T02:27:47.943Z,0.21
2018-02-10T02:28:47.718Z,0.15
2018-02-10T02:30:47.999Z,0.23
2018-02-10T02:31:47.993Z,0.14
2018-02-10T02:33:48.024Z,0.13
2018-02-10T02:34:48.042Z,0.14
2018-02-10T02:36:02.712Z,0.07
2018-02-10T02:37:02.725Z,0.14
2018-02-10T02:37:48.091Z,0.11
2018-02-10T02:38:48.091Z,0.14
2018-02-10T02:40:48.158Z,0
2018-02-10T02:41:48.108Z,0.04
2018-02-10T02:42:48.160Z,0.23
2018-02-10T02:43:48.149Z,0.23
2018-02-10T02:44:48.152Z,0.2
2018-02-10T02:45:48.158Z,0.11
2018-02-10T02:46:48.159Z,0.11
2018-02-10T02:47:48.188Z,0.08
2018-02-10T02:48:48.194Z,-0.04
2018-02-10T02:49:48.223Z,0.18
2018-02-10T02:50:47.971Z,0.18
2018-02-10T02:52:02.910Z,0.23
2018-02-10T02:52:47.992Z,0.13
2018-02-10T02:53:48.256Z,0.2
2018-02-10T02:54:48.298Z,0.15
2018-02-10T02:55:48.301Z,0.13
2018-02-10T02:56:48.310Z,0.11
2018-02-10T02:57:48.308Z,0.18
2018-02-10T02:58:48.332Z,0.17
2018-02-10T03:00:48.343Z,0.17
2018-02-10T03:01:48.356Z,0.2
2018-02-10T03:02:48.112Z,0.17
2018-02-10T03:05:03.053Z,0.08
2018-02-10T03:05:48.411Z,0.07
2018-02-10T03:06:48.411Z,0.18
2018-02-10T03:08:02.847Z,0.14
2018-02-10T03:08:48.462Z,0.21
2018-02-10T03:10:03.126Z,0.14
2018-02-10T03:10:48.474Z,0.08
2018-02-10T03:11:48.229Z,0.07
2018-02-10T03:12:48.240Z,0.07
2018-02-10T03:13:48.513Z,0
2018-02-10T03:14:48.004Z,0.04
2018-02-10T03:15:48.526Z,-0.01
2018-02-10T03:16:48.516Z,-0.01
2018-02-10T03:17:48.298Z,-0.04
2018-02-10T03:18:48.323Z,0.03
2018-02-10T03:20:03.235Z,-0.03
2018-02-10T03:20:48.587Z,0
2018-02-10T03:21:48.574Z,-0.05
2018-02-10T03:24:03.295Z,-0.04
2018-02-10T03:24:48.608Z,-0.03
2018-02-10T03:25:48.402Z,-0.04
2018-02-10T03:26:48.653Z,-0.04
2018-02-10T03:27:48.676Z,-0.16
2018-02-10T03:28:48.665Z,-0.03
2018-02-10T03:29:48.685Z,-0.07
2018-02-10T03:30:48.721Z,-0.03
2018-02-10T03:31:48.703Z,-0.05
2018-02-10T03:32:48.733Z,-0.03
2018-02-10T03:34:48.757Z,-0.16
2018-02-10T03:36:48.781Z,-0.1
2018-02-10T03:37:48.527Z,-0.05
2018-02-10T03:38:48.811Z,-0.11
2018-02-10T03:40:03.489Z,-0.14
2018-02-10T03:40:48.824Z,-0.14
2018-02-10T03:41:48.821Z,-0.1
2018-02-10T03:43:48.873Z,-0.14
2018-02-10T03:44:48.867Z,-0.18
2018-02-10T03:45:48.901Z,-0.08
2018-02-10T03:46:48.894Z,-0.14
2018-02-10T03:47:48.642Z,-0.18
2018-02-10T03:48:48.654Z,-0.08
2018-02-10T03:49:48.928Z,-0.16
2018-02-10T03:50:48.956Z,-0.19
2018-02-10T03:51:48.963Z,-0.11
2018-02-10T03:52:48.710Z,-0.1
2018-02-10T03:53:48.728Z,-0.04
2018-02-10T03:54:48.992Z,-0.19
2018-02-10T03:56:03.675Z,-0.25
2018-02-10T03:56:49.009Z,-0.14
2018-02-10T03:57:49.025Z,-0.22
2018-02-10T03:58:48.795Z,-0.25
2018-02-10T03:59:49.057Z,-0.18
2018-02-10T04:00:49.149Z,-0.23
2018-02-10T04:01:48.564Z,-0.29
2018-02-10T04:02:48.830Z,-0.23
2018-02-10T04:03:49.102Z,-0.26
2018-02-10T04:05:48.863Z,-0.21
2018-02-10T04:06:48.883Z,-0.29
2018-02-10T04:07:48.629Z,-0.28
2018-02-10T04:08:49.161Z,-0.23
2018-02-10T04:09:48.914Z,-0.21
2018-02-10T04:11:03.850Z,-0.16
2018-02-10T04:11:49.202Z,-0.1
2018-02-10T04:12:48.948Z,-0.08
2018-02-10T04:13:49.217Z,-0.03
2018-02-10T04:14:49.228Z,-0.05
2018-02-10T04:15:49.249Z,-0.03
2018-02-10T04:16:49.248Z,-0.04
2018-02-10T04:17:49.246Z,-0.04
2018-02-10T04:18:49.285Z,-0.1
2018-02-10T04:19:49.302Z,-0.07
2018-02-10T04:21:03.726Z,-0.07
2018-02-10T04:21:49.076Z,-0.07
2018-02-10T04:22:49.325Z,-0.11
2018-02-10T04:23:49.325Z,-0.05
2018-02-10T04:24:49.351Z,-0.08
2018-02-10T04:25:49.356Z,-0.1
2018-02-10T04:26:49.364Z,-0.07
2018-02-10T04:27:49.372Z,-0.1
2018-02-10T04:28:49.386Z,0
2018-02-10T04:29:49.166Z,-0.01
2018-02-10T04:30:49.433Z,0.02
2018-02-10T04:31:49.414Z,-0.04
2018-02-10T04:32:49.463Z,0
2018-02-10T04:33:49.202Z,-0.05
2018-02-10T04:34:49.464Z,0
2018-02-10T04:35:49.464Z,-0.11
2018-02-10T04:36:49.484Z,-0.03
2018-02-10T04:37:49.508Z,-0.03
2018-02-10T04:39:49.544Z,-0.04
2018-02-10T04:40:49.546Z,0.03
2018-02-10T04:41:49.547Z,-0.05
2018-02-10T04:43:04.245Z,-0.14
2018-02-10T04:43:49.573Z,-0.05
2018-02-10T04:44:49.581Z,-0.16
2018-02-10T04:45:49.594Z,-0.03
2018-02-10T04:46:49.617Z,-0.07
2018-02-10T04:47:49.382Z,-0.07
2018-02-10T04:48:49.642Z,-0.11
2018-02-10T04:49:49.381Z,-0.14
2018-02-10T04:50:49.155Z,-0.1
2018-02-10T04:51:49.676Z,-0.14
2018-02-10T04:52:49.693Z,-0.03
2018-02-10T04:53:49.453Z,-0.1
2018-02-10T04:54:49.807Z,0
2018-02-10T04:55:49.722Z,0.02
2018-02-10T04:56:49.742Z,0
2018-02-10T04:57:49.754Z,0.04
2018-02-10T04:59:04.437Z,0.04
2018-02-10T04:59:49.519Z,0.02
2018-02-10T05:00:49.531Z,0
2018-02-10T05:01:49.534Z,-0.01
2018-02-10T05:03:49.819Z,-0.03
2018-02-10T05:04:49.841Z,-0.05
2018-02-10T05:05:49.843Z,0
2018-02-10T05:06:49.831Z,0.11
2018-02-10T05:07:49.866Z,0.04
2018-02-10T05:08:49.629Z,0.14
2018-02-10T05:09:49.895Z,0.15
2018-02-10T05:10:49.893Z,0.2
2018-02-10T05:11:49.914Z,0.1
2018-02-10T05:13:04.344Z,0.11
2018-02-10T05:13:49.682Z,0.13
2018-02-10T05:15:04.623Z,-0.03
2018-02-10T05:15:49.964Z,0.02
2018-02-10T05:16:49.984Z,-0.08
2018-02-10T05:17:49.976Z,-0.03
2018-02-10T05:18:49.997Z,0.03
2018-02-10T05:19:49.744Z,-0.05
2018-02-10T05:20:49.763Z,-0.05
2018-02-10T05:21:50.017Z,-0.04
2018-02-10T05:22:49.809Z,-0.01
2018-02-10T05:23:49.802Z,0.03
2018-02-10T05:24:49.918Z,-0.03
2018-02-10T05:25:50.078Z,0
2018-02-10T05:26:50.100Z,0
2018-02-10T05:27:50.111Z,0.11
2018-02-10T05:28:49.860Z,0.07
2018-02-10T05:29:50.132Z,0.11
2018-02-10T05:31:04.808Z,0.04
2018-02-10T05:31:50.144Z,0.03
2018-02-10T05:32:50.170Z,0.08
2018-02-10T05:34:50.207Z,0.13
2018-02-10T05:35:50.199Z,0.15
2018-02-10T05:36:50.230Z,0.04
2018-02-10T05:37:50.218Z,0.08
2018-02-10T05:38:50.227Z,0.02
2018-02-10T05:39:50.247Z,0.07
2018-02-10T05:40:50.248Z,0.07
2018-02-10T05:41:50.287Z,0
2018-02-10T05:42:50.271Z,0.17
2018-02-10T05:43:50.060Z,0.18
2018-02-10T05:44:50.079Z,0.11
2018-02-10T05:46:04.997Z,-0.01
2018-02-10T05:46:50.337Z,0.14
2018-02-10T05:47:50.343Z,0.15
2018-02-10T05:48:50.106Z,0.14
2018-02-10T05:49:50.126Z,0.02
2018-02-10T05:50:50.392Z,0.11
2018-02-10T05:51:50.393Z,0.08
2018-02-10T05:52:50.388Z,0.13
2018-02-10T05:53:50.176Z,0.14
2018-02-10T05:55:05.092Z,0.32
2018-02-10T05:55:50.445Z,0.31
2018-02-10T05:56:50.200Z,0.18
2018-02-10T05:57:50.464Z,0.14
2018-02-10T05:58:50.225Z,0.15
2018-02-10T06:01:05.177Z,0.15
2018-02-10T06:01:50.517Z,0.13
2018-02-10T06:02:50.518Z,0.17
2018-02-10T06:03:50.025Z,0.18
2018-02-10T06:04:50.558Z,0.23
2018-02-10T06:05:50.546Z,0.28
2018-02-10T06:07:04.988Z,0.28
2018-02-10T06:07:50.602Z,0.31
2018-02-10T06:08:50.595Z,0.18
2018-02-10T06:09:50.614Z,0.2
2018-02-10T06:10:50.411Z,0.18
2018-02-10T06:11:50.374Z,0.11
2018-02-10T06:12:50.661Z,0.17
2018-02-10T06:13:50.666Z,0.14
2018-02-10T06:14:50.673Z,0.14
2018-02-10T06:15:50.433Z,0.2
2018-02-10T06:16:50.711Z,0.21
2018-02-10T06:18:05.376Z,0.15
2018-02-10T06:18:50.719Z,0.21
2018-02-10T06:19:50.730Z,0.21
2018-02-10T06:20:50.735Z,0.2
2018-02-10T06:21:50.488Z,0.21
2018-02-10T06:22:50.525Z,0.2
2018-02-10T06:23:50.762Z,0.18
2018-02-10T06:24:50.801Z,0.15
2018-02-10T06:25:50.821Z,0.18
2018-02-10T06:26:50.824Z,0.18
2018-02-10T06:27:50.862Z,0.18
2018-02-10T06:28:50.585Z,0.14
2018-02-10T06:29:50.840Z,0.14
2018-02-10T06:30:50.881Z,0.1
2018-02-10T06:31:50.879Z,0.15
2018-02-10T06:32:50.875Z,0.15
2018-02-10T06:34:50.900Z,0.14
2018-02-10T06:35:50.658Z,0.2
2018-02-10T06:36:50.932Z,0.24
2018-02-10T06:37:50.943Z,0.31
2018-02-10T06:38:50.972Z,0.23
2018-02-10T06:39:50.975Z,0.29
2018-02-10T06:40:50.980Z,0.29
2018-02-10T06:42:05.667Z,0.24
2018-02-10T06:42:51.008Z,0.35
2018-02-10T06:43:51.015Z,0.23
2018-02-10T06:44:51.048Z,0.32
2018-02-10T06:45:51.158Z,0.21
2018-02-10T06:46:51.076Z,0.17
2018-02-10T06:47:51.086Z,0.15
2018-02-10T06:48:51.090Z,0.18
2018-02-10T06:50:05.763Z,0.28
2018-02-10T06:50:50.854Z,0.17
2018-02-10T06:51:51.123Z,0.17
2018-02-10T06:52:51.141Z,0.21
2018-02-10T06:53:51.140Z,0.14
2018-02-10T06:54:51.164Z,0.31
2018-02-10T06:56:51.189Z,0.24
2018-02-10T06:57:51.173Z,0.31
2018-02-10T06:58:51.198Z,0.35
2018-02-10T06:59:51.218Z,0.36
2018-02-10T07:00:51.224Z,0.36
2018-02-10T07:01:50.988Z,0.31
2018-02-10T07:02:51.000Z,0.35
2018-02-10T07:03:51.012Z,0.36
2018-02-10T07:05:05.936Z,0.28
2018-02-10T07:06:05.970Z,0.32
2018-02-10T07:06:51.043Z,0.26
2018-02-10T07:07:51.059Z,0.32
2018-02-10T07:08:51.064Z,0.14
2018-02-10T07:09:51.326Z,0.15
2018-02-10T07:11:06.020Z,0.17
2018-02-10T07:11:51.363Z,0.17
2018-02-10T07:12:51.470Z,0.18
2018-02-10T07:13:51.389Z,0.23
2018-02-10T07:14:51.407Z,0.29
2018-02-10T07:15:51.395Z,0.28
2018-02-10T07:16:51.437Z,0.32
2018-02-10T07:18:06.095Z,0.31
2018-02-10T07:18:51.463Z,0.35
2018-02-10T07:19:51.466Z,0.29
2018-02-10T07:21:06.144Z,0.35
2018-02-10T07:21:51.471Z,0.32
2018-02-10T07:22:51.501Z,0.35
2018-02-10T07:23:51.508Z,0.32
2018-02-10T07:24:51.513Z,0.28
2018-02-10T07:25:51.581Z,0.33
2018-02-10T07:26:51.531Z,0.29
2018-02-10T07:27:51.563Z,0.36
2018-02-10T07:28:51.578Z,0.35
2018-02-10T07:29:51.598Z,0.36
2018-02-10T07:30:51.346Z,0.38
2018-02-10T07:31:51.615Z,0.38
2018-02-10T07:32:51.375Z,0.38
2018-02-10T07:33:51.639Z,0.42
2018-02-10T07:34:51.629Z,0.42
2018-02-10T07:35:51.766Z,0.42
2018-02-10T07:36:51.426Z,0.5
2018-02-10T07:37:51.416Z,0.35
2018-02-10T07:38:51.690Z,0.38
2018-02-10T07:39:51.713Z,0.38
2018-02-10T07:40:51.710Z,0.36
2018-02-10T07:41:51.483Z,0.35
2018-02-10T07:42:51.728Z,0.39
2018-02-10T07:43:51.761Z,0.46
2018-02-10T07:44:51.779Z,0.39
2018-02-10T07:45:51.767Z,0.47
2018-02-10T07:46:51.790Z,0.47
2018-02-10T07:47:51.811Z,0.44
2018-02-10T07:48:51.819Z,0.51
2018-02-10T07:49:51.841Z,0.51
2018-02-10T07:50:51.584Z,0.57
2018-02-10T07:51:51.866Z,0.55
2018-02-10T07:53:06.275Z,0.62
2018-02-10T07:53:51.894Z,0.6
2018-02-10T07:54:51.901Z,0.51
2018-02-10T07:55:51.896Z,0.51
2018-02-10T07:57:06.586Z,0.5
2018-02-10T07:57:51.433Z,0.41
2018-02-10T07:58:51.684Z,0.46
2018-02-10T07:59:51.964Z,0.55
2018-02-10T08:01:06.625Z,0.5
2018-02-10T08:01:51.708Z,0.51
2018-02-10T08:02:51.984Z,0.53
2018-02-10T08:03:52.001Z,0.58
2018-02-10T08:04:51.756Z,0.61
2018-02-10T08:05:52.040Z,0.6
2018-02-10T08:06:52.049Z,0.61
2018-02-10T08:07:52.048Z,0.62
2018-02-10T08:09:51.876Z,0.73
2018-02-10T08:10:52.078Z,0.76
2018-02-10T08:11:52.082Z,0.68
2018-02-10T08:12:52.110Z,0.62
2018-02-10T08:13:52.133Z,0.66
2018-02-10T08:14:51.884Z,0.76
2018-02-10T08:15:52.155Z,0.73
2018-02-10T08:16:52.158Z,0.72
2018-02-10T08:17:52.175Z,0.72
2018-02-10T08:18:52.194Z,0.76
2018-02-10T08:19:52.195Z,0.7
2018-02-10T08:20:52.217Z,0.79
2018-02-10T08:22:52.236Z,0.8
2018-02-10T08:23:51.991Z,0.78
2018-02-10T08:25:06.927Z,0.75
2018-02-10T08:25:52.270Z,0.83
2018-02-10T08:26:52.289Z,0.75
2018-02-10T08:27:52.303Z,0.78
2018-02-10T08:28:52.052Z,0.75
2018-02-10T08:29:52.316Z,0.73
2018-02-10T08:30:52.343Z,0.8
2018-02-10T08:31:52.351Z,0.83
2018-02-10T08:32:52.365Z,0.84
2018-02-10T08:33:52.372Z,0.94
2018-02-10T08:34:52.396Z,0.93
2018-02-10T08:35:52.395Z,0.83
2018-02-10T08:36:52.402Z,0.86
2018-02-10T08:37:52.411Z,0.87
2018-02-10T08:38:52.452Z,0.93
2018-02-10T08:39:52.460Z,0.94
2018-02-10T08:41:07.142Z,0.97
2018-02-10T08:41:52.469Z,0.97
2018-02-10T08:42:52.470Z,0.94
2018-02-10T08:43:52.491Z,1.04
2018-02-10T08:44:52.497Z,0.93
2018-02-10T08:45:52.275Z,1.04
2018-02-10T08:46:52.289Z,0.97
2018-02-10T08:47:52.544Z,1
2018-02-10T08:48:52.291Z,1
2018-02-10T08:49:52.566Z,1.02
2018-02-10T08:50:52.574Z,1.02
2018-02-10T08:51:52.615Z,0.97
2018-02-10T08:52:52.615Z,1.04
2018-02-10T08:55:07.049Z,1.15
2018-02-10T08:56:07.058Z,1.14
2018-02-10T08:56:52.395Z,1.12
2018-02-10T08:57:52.668Z,1
2018-02-10T08:58:52.688Z,1.11
2018-02-10T08:59:52.182Z,1.15
2018-02-10T09:00:52.467Z,1.14
2018-02-10T09:02:52.749Z,1.06
2018-02-10T09:03:52.734Z,1.05
2018-02-10T09:04:52.252Z,1.2
2018-02-10T09:05:52.508Z,1.23
2018-02-10T09:07:07.468Z,1.12
2018-02-10T09:07:52.801Z,1.18
2018-02-10T09:09:07.485Z,1.11
2018-02-10T09:09:52.911Z,1.22
2018-02-10T09:10:52.826Z,1.2
2018-02-10T09:11:52.843Z,1.11
2018-02-10T09:12:52.871Z,1.15
2018-02-10T09:13:52.635Z,1.2
2018-02-10T09:14:52.897Z,1.16
2018-02-10T09:15:52.906Z,1.2
2018-02-10T09:16:52.930Z,1.26
2018-02-10T09:17:52.923Z,1.16
2018-02-10T09:18:52.678Z,1.33
2018-02-10T09:19:52.950Z,1.32
2018-02-10T09:20:52.706Z,1.33
2018-02-10T09:21:52.972Z,1.16
2018-02-10T09:22:52.982Z,1.41
2018-02-10T09:23:53.016Z,1.36
2018-02-10T09:24:53.040Z,1.4
2018-02-10T09:25:53.068Z,1.4
2018-02-10T09:27:07.463Z,1.41
2018-02-10T09:28:07.461Z,1.55
2018-02-10T09:28:53.079Z,1.5
2018-02-10T09:29:53.060Z,1.58
2018-02-10T09:30:52.842Z,1.6
2018-02-10T09:31:52.838Z,1.65
2018-02-10T09:33:07.784Z,1.7
2018-02-10T09:33:53.142Z,1.79
2018-02-10T09:34:53.152Z,1.65
2018-02-10T09:37:07.836Z,1.66
2018-02-10T09:38:07.843Z,1.72
2018-02-10T09:38:52.945Z,1.79
2018-02-10T09:39:53.278Z,1.84
2018-02-10T09:40:53.245Z,1.7
2018-02-10T09:41:52.724Z,1.84
2018-02-10T09:42:52.993Z,1.79
2018-02-10T09:44:07.934Z,1.87
2018-02-10T09:45:53.029Z,1.84
2018-02-10T09:46:53.052Z,1.98
2018-02-10T09:47:53.320Z,1.93
2018-02-10T09:48:53.310Z,2
2018-02-10T09:49:53.089Z,1.98
2018-02-10T09:50:53.337Z,2.03
2018-02-10T09:51:53.369Z,2.06
2018-02-10T09:52:53.133Z,2
2018-02-10T09:53:53.436Z,2.05
2018-02-10T09:54:53.206Z,2.06
2018-02-10T09:56:53.176Z,2.07
2018-02-10T09:57:53.447Z,2.09
2018-02-10T09:59:08.132Z,2.17
2018-02-10T10:00:08.184Z,2.23
2018-02-10T10:00:53.479Z,2.27
2018-02-10T10:01:53.237Z,2.34
2018-02-10T10:02:53.524Z,2.34
2018-02-10T10:03:53.545Z,2.38
2018-02-10T10:04:53.278Z,2.42
2018-02-10T10:05:53.551Z,2.46
2018-02-10T10:06:53.305Z,2.52
2018-02-10T10:07:53.567Z,2.56
2018-02-10T10:08:53.082Z,2.67
2018-02-10T10:10:53.621Z,2.71
2018-02-10T10:11:53.381Z,2.57
2018-02-10T10:12:53.387Z,2.77
2018-02-10T10:13:53.412Z,2.78
2018-02-10T10:14:53.691Z,2.78
2018-02-10T10:16:08.359Z,2.87
2018-02-10T10:16:53.705Z,2.95
2018-02-10T10:17:53.458Z,2.92
2018-02-10T10:18:53.472Z,3.02
2018-02-10T10:19:53.725Z,3.05
2018-02-10T10:20:53.504Z,3
2018-02-10T10:21:53.513Z,3
2018-02-10T10:22:53.800Z,3.05
2018-02-10T10:23:53.539Z,3.15
2018-02-10T10:24:53.796Z,3.24
2018-02-10T10:25:53.301Z,3.15
2018-02-10T10:26:53.833Z,3.17
2018-02-10T10:27:53.847Z,3.17
2018-02-10T10:28:53.612Z,3.24
2018-02-10T10:29:53.975Z,3.23
2018-02-10T10:31:08.562Z,3.35
2018-02-10T10:31:53.894Z,3.32
2018-02-10T10:32:54.025Z,3.47
2018-02-10T10:34:53.953Z,3.6
2018-02-10T10:35:53.807Z,3.6
2018-02-10T10:37:53.989Z,3.68
2018-02-10T10:38:53.755Z,3.61
2018-02-10T10:39:54.029Z,3.65
2018-02-10T10:40:53.779Z,3.68
2018-02-10T10:41:54.048Z,3.69
2018-02-10T10:42:54.056Z,3.75
2018-02-10T10:43:53.573Z,3.62
2018-02-10T10:44:54.070Z,3.68
2018-02-10T10:45:53.870Z,3.84
2018-02-10T10:46:54.129Z,3.8
2018-02-10T10:49:08.815Z,3.86
2018-02-10T10:50:53.931Z,3.98
2018-02-10T10:51:54.207Z,3.94
2018-02-10T10:52:53.957Z,3.97
2018-02-10T10:53:53.955Z,4.02
2018-02-10T10:54:53.982Z,4.06
2018-02-10T10:55:54.244Z,4.05
2018-02-10T10:56:54.270Z,4.02
2018-02-10T10:57:54.280Z,4.04
2018-02-10T10:58:54.039Z,3.97
2018-02-10T10:59:54.048Z,4.02
2018-02-10T11:00:54.072Z,4
2018-02-10T11:01:54.066Z,4
2018-02-10T11:03:09.008Z,4.14
2018-02-10T11:03:54.372Z,4.02
2018-02-10T11:04:54.377Z,4.16
2018-02-10T11:05:54.142Z,4.06
2018-02-10T11:06:54.415Z,4.12
2018-02-10T11:07:54.163Z,4.08
2018-02-10T11:09:54.182Z,3.97
2018-02-10T11:10:54.200Z,3.98
2018-02-10T11:12:54.241Z,3.96
2018-02-10T11:13:54.525Z,3.9
2018-02-10T11:14:54.527Z,3.86
2018-02-10T11:15:54.527Z,3.91
2018-02-10T11:16:54.553Z,3.91
2018-02-10T11:17:54.332Z,3.87
2018-02-10T11:19:09.258Z,3.9
2018-02-10T11:19:54.600Z,3.9
2018-02-10T11:20:54.619Z,3.88
2018-02-10T11:21:54.369Z,3.98
2018-02-10T11:22:54.647Z,4.02
2018-02-10T11:23:54.645Z,4
2018-02-10T11:26:09.368Z,4
2018-02-10T11:26:54.428Z,4.05
2018-02-10T11:27:54.714Z,4.06
2018-02-10T11:28:54.728Z,4.05
2018-02-10T11:29:54.493Z,4.05
2018-02-10T11:31:54.760Z,4.12
2018-02-10T11:32:54.536Z,4.18
2018-02-10T11:33:54.850Z,4.14
2018-02-10T11:35:09.483Z,4.11
2018-02-10T11:36:09.248Z,4.04
2018-02-10T11:36:54.826Z,4.12
2018-02-10T11:37:54.603Z,4.11
2018-02-10T11:38:54.863Z,4.18
2018-02-10T11:39:54.915Z,4.11
2018-02-10T11:40:54.918Z,4.27
2018-02-10T11:41:54.915Z,4.27
2018-02-10T11:44:09.634Z,4.36
2018-02-10T11:44:54.973Z,4.5
2018-02-10T11:45:54.740Z,4.41
2018-02-10T11:46:54.727Z,4.54
2018-02-10T11:47:54.499Z,4.55
2018-02-10T11:48:55.026Z,4.63
2018-02-10T11:49:55.044Z,4.66
2018-02-10T11:51:54.814Z,4.75
2018-02-10T11:52:55.088Z,4.75
2018-02-10T11:53:54.829Z,4.77
2018-02-10T11:54:55.103Z,4.92
2018-02-10T11:55:55.166Z,4.85
2018-02-10T11:56:54.896Z,4.89
2018-02-10T11:57:55.155Z,4.99
2018-02-10T11:58:55.164Z,5.1
2018-02-10T11:59:54.945Z,5.15
2018-02-10T12:00:54.944Z,5.12
2018-02-10T12:01:54.977Z,5.13
2018-02-10T12:03:09.899Z,5.15
2018-02-10T12:03:54.999Z,5.13
2018-02-10T12:04:55.017Z,5.18
2018-02-10T12:06:09.967Z,5.2
2018-02-10T12:06:55.299Z,5.22
2018-02-10T12:07:55.309Z,5.21
2018-02-10T12:08:55.086Z,5.21
2018-02-10T12:09:55.072Z,5.2
2018-02-10T12:10:55.424Z,5.33
2018-02-10T12:12:10.082Z,5.35
2018-02-10T12:12:55.135Z,5.33
2018-02-10T12:13:55.410Z,5.33
2018-02-10T12:14:55.411Z,5.39
2018-02-10T12:16:10.106Z,5.42
2018-02-10T12:16:55.447Z,5.46
2018-02-10T12:17:55.460Z,5.49
2018-02-10T12:19:55.510Z,5.51
2018-02-10T12:20:55.532Z,5.56
2018-02-10T12:21:55.290Z,5.45
2018-02-10T12:22:55.283Z,5.45
2018-02-10T12:23:55.558Z,5.48
2018-02-10T12:24:55.312Z,5.39
2018-02-10T12:25:55.587Z,5.36
2018-02-10T12:26:55.610Z,5.45
2018-02-10T12:27:55.628Z,5.4
2018-02-10T12:28:55.381Z,5.46
2018-02-10T12:29:55.406Z,5.43
2018-02-10T12:31:55.695Z,5.43
2018-02-10T12:32:55.699Z,5.43
2018-02-10T12:33:55.467Z,5.36
2018-02-10T12:35:55.735Z,5.48
2018-02-10T12:36:55.772Z,5.49
2018-02-10T12:38:10.444Z,5.45
2018-02-10T12:38:55.899Z,5.42
2018-02-10T12:39:55.836Z,5.39
2018-02-10T12:40:55.815Z,5.3
2018-02-10T12:41:55.595Z,5.2
2018-02-10T12:42:55.610Z,5.3
2018-02-10T12:43:55.890Z,5.22
2018-02-10T12:45:10.565Z,5.35
2018-02-10T12:45:55.741Z,5.24
2018-02-10T12:46:55.941Z,5.22
2018-02-10T12:47:55.677Z,5.33
2018-02-10T12:48:55.717Z,5.31
2018-02-10T12:50:10.650Z,5.35
2018-02-10T12:50:55.727Z,5.46
2018-02-10T12:51:56.025Z,5.4
2018-02-10T12:52:56.027Z,5.45
2018-02-10T12:54:10.718Z,5.58
2018-02-10T12:54:56.046Z,5.48
2018-02-10T12:55:55.816Z,5.54
2018-02-10T12:56:56.092Z,5.61
2018-02-10T12:58:10.521Z,5.64
2018-02-10T12:58:55.861Z,5.83
2018-02-10T12:59:55.872Z,5.82
2018-02-10T13:00:55.895Z,5.97
2018-02-10T13:01:55.907Z,6.01
2018-02-10T13:02:55.934Z,6.01
2018-02-10T13:03:56.179Z,5.93
2018-02-10T13:04:55.980Z,5.93
2018-02-10T13:05:56.229Z,5.86
2018-02-10T13:06:56.260Z,5.94
2018-02-10T13:07:56.273Z,5.99
2018-02-10T13:08:55.780Z,6.01
2018-02-10T13:10:56.065Z,6
2018-02-10T13:11:56.331Z,6
2018-02-10T13:12:56.346Z,6.04
2018-02-10T13:13:56.115Z,6.01
2018-02-10T13:14:56.398Z,6.08
2018-02-10T13:15:56.401Z,6
2018-02-10T13:17:10.826Z,5.97
2018-02-10T13:17:55.920Z,5.96
2018-02-10T13:19:11.117Z,5.97
2018-02-10T13:19:56.502Z,5.83
2018-02-10T13:20:56.491Z,5.86
2018-02-10T13:21:56.504Z,5.83
2018-02-10T13:22:56.272Z,5.71
2018-02-10T13:23:56.271Z,5.74
2018-02-10T13:25:10.963Z,5.75
2018-02-10T13:26:11.231Z,5.63
2018-02-10T13:26:56.306Z,5.64
2018-02-10T13:27:56.397Z,5.58
2018-02-10T13:28:56.594Z,5.43
2018-02-10T13:29:56.381Z,5.27
2018-02-10T13:30:56.393Z,5.13
2018-02-10T13:31:56.450Z,4.97
2018-02-10T13:32:56.413Z,5
2018-02-10T13:33:56.194Z,4.94
2018-02-10T13:34:56.700Z,5.03
2018-02-10T13:35:56.723Z,4.96
2018-02-10T13:36:56.477Z,4.78
2018-02-10T13:37:56.762Z,4.88
2018-02-10T13:38:56.503Z,4.84
2018-02-10T13:39:56.531Z,4.66
2018-02-10T13:41:56.559Z,4.67
2018-02-10T13:42:56.900Z,4.7
2018-02-10T13:43:56.853Z,4.62
2018-02-10T13:44:56.889Z,4.67
2018-02-10T13:45:56.982Z,4.7
2018-02-10T13:46:56.649Z,4.67
2018-02-10T13:47:56.909Z,4.65
2018-02-10T13:48:56.700Z,4.67
2018-02-10T13:49:56.948Z,4.6
2018-02-10T13:50:56.723Z,4.69
2018-02-10T13:51:57.035Z,4.73
2018-02-10T13:52:56.733Z,4.69
2018-02-10T13:53:56.770Z,4.75
2018-02-10T13:54:56.781Z,4.69
2018-02-10T13:55:57.053Z,4.73
2018-02-10T13:58:11.755Z,4.75
2018-02-10T13:58:57.088Z,4.67
2018-02-10T13:59:56.865Z,4.67
2018-02-10T14:00:56.876Z,4.66
2018-02-10T14:01:57.147Z,4.66
2018-02-10T14:02:56.893Z,4.65
2018-02-10T14:03:56.923Z,4.7
2018-02-10T14:04:57.172Z,4.75
2018-02-10T14:05:56.965Z,4.66
2018-02-10T14:06:56.971Z,4.66
2018-02-10T14:07:57.232Z,4.66
2018-02-10T14:08:57.255Z,4.75
2018-02-10T14:09:57.257Z,4.72
2018-02-10T14:10:57.281Z,4.7
2018-02-10T14:11:57.282Z,4.7
2018-02-10T14:13:11.736Z,4.82
2018-02-10T14:13:57.417Z,4.69